Time;durP1;ratioP1;P1;durP2;ratioP2;P2;SDS_P1;SDS_P2;PMS_P1;PMS_P2;Temp;Humidity;BMP_temperature;BMP_pressure;BME280_temperature;BME280_humidity;BME280_pressure;Samples;Min_cycle;Max_cycle;Signal;HPM_P1;HPM_P2
2023/10/31 00:00:40;;;;;;;2.08;0.80;;;22.20;85.30;;;;;;5015067;28;20029;-65
2023/10/31 00:03:05;;;;;;;1.08;0.70;;;22.20;85.30;;;;;;5015573;28;20022;-65
2023/10/31 00:05:31;;;;;;;2.40;0.80;;;22.20;85.20;;;;;;5014869;28;20056;-65
2023/10/31 00:07:56;;;;;;;2.45;1.05;;;22.20;85.20;;;;;;5015164;28;20459;-65
2023/10/31 00:10:22;;;;;;;1.48;0.70;;;22.20;85.20;;;;;;5014936;28;20391;-66
2023/10/31 00:12:48;;;;;;;2.38;0.70;;;22.10;85.10;;;;;;5015085;28;20020;-65
2023/10/31 00:15:14;;;;;;;1.58;0.60;;;22.10;85.00;;;;;;5014590;28;20483;-65
2023/10/31 00:17:39;;;;;;;2.15;0.70;;;22.10;85.00;;;;;;5015310;28;20033;-64
2023/10/31 00:20:05;;;;;;;1.25;0.88;;;22.10;85.00;;;;;;5014944;28;20030;-64
2023/10/31 00:22:31;;;;;;;0.80;0.70;;;22.10;84.90;;;;;;5014633;28;20104;-64
2023/10/31 00:24:56;;;;;;;1.10;0.60;;;22.10;84.90;;;;;;5014518;28;20105;-64
2023/10/31 00:27:22;;;;;;;1.83;0.85;;;22.10;84.90;;;;;;5014302;28;20021;-64
2023/10/31 00:29:48;;;;;;;2.40;0.90;;;22.10;84.90;;;;;;5012780;28;20029;-65
2023/10/31 00:32:13;;;;;;;3.03;1.70;;;22.10;84.90;;;;;;5014053;28;20030;-66
2023/10/31 00:34:39;;;;;;;1.02;0.63;;;22.10;84.90;;;;;;5014587;28;20068;-66
2023/10/31 00:37:04;;;;;;;1.45;0.60;;;22.10;84.80;;;;;;5014415;28;20030;-66
2023/10/31 00:39:30;;;;;;;1.00;0.52;;;22.10;84.80;;;;;;5014706;28;20025;-66
2023/10/31 00:41:55;;;;;;;2.63;0.60;;;22.10;84.70;;;;;;5014337;28;20041;-65
2023/10/31 00:44:21;;;;;;;0.70;0.55;;;22.10;84.70;;;;;;5014129;28;20088;-65
2023/10/31 00:46:46;;;;;;;1.88;0.77;;;22.10;84.70;;;;;;5014313;28;20018;-65
2023/10/31 00:49:12;;;;;;;1.17;0.50;;;22.10;84.60;;;;;;5014521;28;20017;-66
2023/10/31 00:51:38;;;;;;;1.00;0.60;;;22.00;84.60;;;;;;5014717;28;20375;-66
2023/10/31 00:54:04;;;;;;;0.82;0.40;;;22.00;84.60;;;;;;5014309;28;20065;-66
2023/10/31 00:56:29;;;;;;;1.38;0.40;;;22.00;84.60;;;;;;5014365;28;20433;-66
2023/10/31 00:58:55;;;;;;;0.93;0.28;;;22.00;84.60;;;;;;5014082;28;20030;-66
2023/10/31 01:01:20;;;;;;;1.65;1.00;;;22.00;84.60;;;;;;5014176;28;20030;-66
2023/10/31 01:03:46;;;;;;;1.85;0.60;;;22.00;84.50;;;;;;5013779;28;20053;-66
2023/10/31 01:06:11;;;;;;;1.90;0.40;;;22.00;84.50;;;;;;5013928;28;20107;-66
2023/10/31 01:08:37;;;;;;;0.65;0.52;;;21.90;84.40;;;;;;5014427;28;20037;-66
2023/10/31 01:11:03;;;;;;;0.93;0.60;;;21.90;84.40;;;;;;5014124;28;20018;-66
2023/10/31 01:13:28;;;;;;;0.95;0.30;;;21.90;84.30;;;;;;5013847;28;20052;-65
2023/10/31 01:15:54;;;;;;;1.50;0.70;;;21.90;84.30;;;;;;5013632;28;20030;-66
2023/10/31 01:18:19;;;;;;;2.85;0.70;;;21.90;84.30;;;;;;5013738;28;20024;-66
2023/10/31 01:20:45;;;;;;;1.20;0.68;;;21.90;84.20;;;;;;5013742;28;20417;-66
2023/10/31 01:23:11;;;;;;;1.95;0.60;;;21.90;84.30;;;;;;5014231;28;20490;-66
2023/10/31 01:25:36;;;;;;;1.10;0.30;;;21.80;84.10;;;;;;5013548;28;20053;-66
2023/10/31 01:28:02;;;;;;;1.23;0.80;;;21.80;84.20;;;;;;5014057;28;20033;-66
2023/10/31 01:30:27;;;;;;;1.30;0.50;;;21.80;84.10;;;;;;5014188;28;20029;-66
2023/10/31 01:32:53;;;;;;;1.55;0.60;;;21.80;84.10;;;;;;5014141;28;20049;-66
2023/10/31 01:35:18;;;;;;;0.98;0.52;;;21.80;84.10;;;;;;5013509;28;20080;-66
2023/10/31 01:37:44;;;;;;;1.35;0.47;;;21.80;84.10;;;;;;5014017;28;20026;-66
2023/10/31 01:40:13;;;;;;;1.00;0.30;;;21.80;84.10;;;;;;5013375;28;20037;-66
2023/10/31 01:42:38;;;;;;;1.10;0.50;;;21.80;84.00;;;;;;5013442;28;20109;-66
2023/10/31 01:45:04;;;;;;;0.90;0.55;;;21.70;84.00;;;;;;5013353;28;20101;-66
2023/10/31 01:47:30;;;;;;;0.73;0.47;;;21.70;84.00;;;;;;5013943;28;20068;-66
2023/10/31 01:49:55;;;;;;;0.85;0.40;;;21.70;84.00;;;;;;5013449;28;20019;-65
2023/10/31 01:52:21;;;;;;;1.67;0.63;;;21.70;83.90;;;;;;5013368;28;20079;-66
2023/10/31 01:54:47;;;;;;;0.95;0.60;;;21.70;83.90;;;;;;5013254;28;20471;-65
2023/10/31 01:57:13;;;;;;;0.70;0.30;;;21.60;83.90;;;;;;5013368;28;20038;-65
2023/10/31 01:59:39;;;;;;;0.88;0.40;;;21.60;83.80;;;;;;5013341;28;20029;-66
2023/10/31 02:02:05;;;;;;;4.07;0.80;;;21.60;84.70;;;;;;5014185;28;20034;-66
2023/10/31 02:04:31;;;;;;;0.65;0.40;;;21.60;83.80;;;;;;5013431;28;20050;-66
2023/10/31 02:06:56;;;;;;;0.88;0.60;;;21.60;83.90;;;;;;5013276;28;20065;-65
2023/10/31 02:09:24;;;;;;;1.33;0.50;;;21.60;83.80;;;;;;5013166;28;20026;-65
2023/10/31 02:11:50;;;;;;;1.17;0.60;;;21.60;83.80;;;;;;5013445;28;20058;-66
2023/10/31 02:14:15;;;;;;;1.70;0.50;;;21.50;83.80;;;;;;5013429;28;20072;-65
2023/10/31 02:16:41;;;;;;;1.27;0.40;;;21.50;83.70;;;;;;5048701;23;20053;-58
2023/10/31 02:19:07;;;;;;;0.85;0.55;;;21.50;83.70;;;;;;5033319;28;20061;-58
2023/10/31 02:21:33;;;;;;;1.15;0.70;;;21.50;83.70;;;;;;5033050;28;20014;-57
2023/10/31 02:24:00;;;;;;;1.38;0.50;;;21.50;83.70;;;;;;5032691;28;20087;-58
2023/10/31 02:26:34;;;;;;;1.05;0.50;;;21.50;83.70;;;;;;5048060;28;20022;-58
2023/10/31 02:29:00;;;;;;;1.35;0.40;;;21.50;83.60;;;;;;5032790;28;20053;-58
2023/10/31 02:31:26;;;;;;;1.35;0.70;;;21.40;83.70;;;;;;5032706;28;20040;-58
2023/10/31 02:33:52;;;;;;;1.30;0.68;;;21.40;83.70;;;;;;5033226;28;20101;-58
2023/10/31 02:36:17;;;;;;;2.35;0.55;;;21.40;83.70;;;;;;5032892;28;20036;-58
2023/10/31 02:38:43;;;;;;;1.33;0.52;;;21.40;83.70;;;;;;5032627;28;20113;-58
2023/10/31 02:41:09;;;;;;;1.05;0.60;;;21.40;83.70;;;;;;5032586;28;20033;-58
2023/10/31 02:43:34;;;;;;;1.13;0.70;;;21.40;83.70;;;;;;5032785;28;20092;-58
2023/10/31 02:46:00;;;;;;;1.20;0.70;;;21.40;83.70;;;;;;5033058;28;20026;-59
2023/10/31 02:48:26;;;;;;;1.20;0.70;;;21.40;83.70;;;;;;5032810;28;20096;-58
2023/10/31 02:50:52;;;;;;;1.48;0.77;;;21.40;83.70;;;;;;5033055;28;20021;-58
2023/10/31 02:53:18;;;;;;;1.10;0.50;;;21.30;84.50;;;;;;5037228;28;20025;-58
2023/10/31 02:55:44;;;;;;;0.80;0.63;;;21.30;83.60;;;;;;5036051;28;20022;-59
2023/10/31 02:58:10;;;;;;;1.25;0.70;;;21.30;83.60;;;;;;5036096;28;20385;-58
2023/10/31 03:00:36;;;;;;;1.42;0.82;;;21.30;83.60;;;;;;5036013;28;20108;-58
2023/10/31 03:03:02;;;;;;;1.67;0.82;;;21.30;83.60;;;;;;5035946;28;20493;-58
2023/10/31 03:05:27;;;;;;;2.58;0.93;;;21.30;83.60;;;;;;5035777;28;20033;-59
2023/10/31 03:07:53;;;;;;;0.82;0.70;;;21.30;83.60;;;;;;5035845;28;20028;-58
2023/10/31 03:10:20;;;;;;;1.20;0.80;;;21.20;83.60;;;;;;5036074;28;20021;-59
2023/10/31 03:12:45;;;;;;;1.10;0.70;;;21.20;83.50;;;;;;5036016;28;20029;-59
2023/10/31 03:15:11;;;;;;;1.23;0.77;;;21.20;83.60;;;;;;5035565;28;20030;-58
2023/10/31 03:17:37;;;;;;;0.95;0.85;;;21.20;83.50;;;;;;5035665;28;20040;-58
2023/10/31 03:20:03;;;;;;;1.20;0.75;;;21.20;83.50;;;;;;5035897;28;20478;-59
2023/10/31 03:22:28;;;;;;;2.35;1.00;;;21.20;83.50;;;;;;5035541;28;20056;-58
2023/10/31 03:24:54;;;;;;;1.33;0.98;;;21.20;83.60;;;;;;5035473;28;20025;-58
2023/10/31 03:27:20;;;;;;;1.20;0.80;;;21.20;83.50;;;;;;5035473;28;20030;-58
2023/10/31 03:29:45;;;;;;;1.92;1.02;;;21.20;83.50;;;;;;5036013;28;20025;-58
2023/10/31 03:32:12;;;;;;;1.42;0.98;;;21.20;83.50;;;;;;5035655;28;20108;-58
2023/10/31 03:34:37;;;;;;;1.63;1.10;;;21.10;83.40;;;;;;5035357;28;20539;-59
2023/10/31 03:37:04;;;;;;;1.95;1.15;;;21.10;83.40;;;;;;5035518;28;20017;-58
2023/10/31 03:39:29;;;;;;;1.08;0.93;;;21.10;83.40;;;;;;5035856;28;20370;-58
2023/10/31 03:41:55;;;;;;;1.70;1.17;;;21.10;83.40;;;;;;5035462;28;20022;-58
2023/10/31 03:44:21;;;;;;;1.85;1.10;;;21.10;83.40;;;;;;5035685;28;20156;-58
2023/10/31 03:46:46;;;;;;;2.35;1.27;;;21.10;83.40;;;;;;5035018;28;20033;-58
2023/10/31 03:49:12;;;;;;;2.88;1.38;;;21.10;83.40;;;;;;5035101;28;20032;-58
2023/10/31 03:51:37;;;;;;;2.28;1.27;;;21.10;83.40;;;;;;5035575;28;20104;-58
2023/10/31 03:54:03;;;;;;;2.20;1.23;;;21.10;83.40;;;;;;5035013;28;20111;-59
2023/10/31 03:56:29;;;;;;;2.28;1.30;;;21.10;83.30;;;;;;5035159;28;20083;-58
2023/10/31 03:58:54;;;;;;;2.35;1.20;;;21.00;83.20;;;;;;5034926;28;20489;-58
2023/10/31 04:01:20;;;;;;;2.15;1.40;;;21.00;83.30;;;;;;5035149;28;20148;-58
2023/10/31 04:03:46;;;;;;;2.20;1.30;;;21.00;83.40;;;;;;5034736;28;20029;-58
2023/10/31 04:06:11;;;;;;;1.80;1.30;;;21.00;83.40;;;;;;5034706;28;20022;-58
2023/10/31 04:08:37;;;;;;;2.25;1.42;;;21.00;83.30;;;;;;5034743;28;20029;-58
2023/10/31 04:11:03;;;;;;;2.60;1.52;;;21.00;83.30;;;;;;5035404;28;20030;-59
2023/10/31 04:13:29;;;;;;;2.50;1.70;;;21.00;83.40;;;;;;5035170;28;20025;-58
2023/10/31 04:15:54;;;;;;;2.55;1.60;;;21.00;83.30;;;;;;5034386;28;20033;-58
2023/10/31 04:18:20;;;;;;;2.35;1.50;;;21.00;83.30;;;;;;5034754;28;20221;-58
2023/10/31 04:20:45;;;;;;;2.70;1.40;;;21.00;83.30;;;;;;5035012;28;20018;-58
2023/10/31 04:23:11;;;;;;;2.65;1.50;;;20.90;83.20;;;;;;5034435;28;20025;-58
2023/10/31 04:25:37;;;;;;;2.67;1.70;;;20.90;83.30;;;;;;5034286;28;20022;-59
2023/10/31 04:28:03;;;;;;;2.83;1.83;;;20.90;83.30;;;;;;5034387;28;20022;-58
2023/10/31 04:30:28;;;;;;;3.45;1.70;;;20.90;83.30;;;;;;5034319;28;20024;-58
2023/10/31 04:32:54;;;;;;;1.98;1.42;;;20.90;83.20;;;;;;5034267;28;20028;-59
2023/10/31 04:35:19;;;;;;;2.90;1.60;;;20.90;83.20;;;;;;5034194;28;20025;-58
2023/10/31 04:37:45;;;;;;;2.75;1.77;;;20.90;83.30;;;;;;5034695;28;20071;-58
2023/10/31 04:40:11;;;;;;;2.72;1.70;;;20.90;83.30;;;;;;5034411;28;20030;-59
2023/10/31 04:42:42;;;;;;;2.72;1.85;;;20.90;83.30;;;;;;5034232;28;20030;-58
2023/10/31 04:45:08;;;;;;;2.50;1.73;;;20.90;83.20;;;;;;5034552;28;20017;-58
2023/10/31 04:47:33;;;;;;;2.80;2.00;;;20.90;83.20;;;;;;5034240;28;20018;-58
2023/10/31 04:49:59;;;;;;;3.08;2.03;;;20.80;83.30;;;;;;5034213;28;20033;-58
2023/10/31 04:52:25;;;;;;;3.50;2.13;;;20.80;83.20;;;;;;5033899;28;20485;-58
2023/10/31 04:54:51;;;;;;;3.25;1.98;;;20.80;83.20;;;;;;5033810;28;20022;-58
2023/10/31 04:57:17;;;;;;;2.88;1.83;;;20.80;83.20;;;;;;5033730;28;20029;-58
2023/10/31 04:59:43;;;;;;;2.15;1.65;;;20.80;83.30;;;;;;5033768;28;20030;-59
2023/10/31 05:02:08;;;;;;;2.55;1.88;;;20.80;83.30;;;;;;5034266;28;20032;-58
2023/10/31 05:04:37;;;;;;;2.38;1.70;;;20.80;83.30;;;;;;5033589;28;20029;-58
2023/10/31 05:07:03;;;;;;;2.88;1.88;;;20.80;83.20;;;;;;5033714;28;20013;-58
2023/10/31 05:09:28;;;;;;;2.47;1.80;;;20.80;83.20;;;;;;5034147;28;20462;-58
2023/10/31 05:11:54;;;;;;;2.80;1.80;;;20.80;83.20;;;;;;5033556;28;20024;-58
2023/10/31 05:14:19;;;;;;;2.92;2.00;;;20.80;83.30;;;;;;5033156;28;20108;-59
2023/10/31 05:16:45;;;;;;;2.45;1.83;;;20.80;83.20;;;;;;5033287;28;20045;-58
2023/10/31 05:19:11;;;;;;;2.35;1.88;;;20.80;83.20;;;;;;5048790;28;20036;-58
2023/10/31 05:21:36;;;;;;;3.50;2.05;;;20.70;83.10;;;;;;5033651;28;20072;-59
2023/10/31 05:24:02;;;;;;;2.40;2.10;;;20.70;83.20;;;;;;5033610;28;20025;-58
2023/10/31 05:26:29;;;;;;;3.22;2.00;;;20.70;83.20;;;;;;5032423;28;20067;-59
2023/10/31 05:28:56;;;;;;;3.35;2.15;;;20.70;83.20;;;;;;5033307;28;20017;-58
2023/10/31 05:31:22;;;;;;;3.78;2.53;;;20.70;83.20;;;;;;5033507;28;20021;-58
2023/10/31 05:33:48;;;;;;;3.30;2.15;;;20.70;83.10;;;;;;5033565;28;20496;-59
2023/10/31 05:36:21;;;;;;;3.00;2.20;;;20.70;83.20;;;;;;5033143;28;20022;-58
2023/10/31 05:38:47;;;;;;;3.08;2.20;;;20.70;83.10;;;;;;5033201;28;20037;-58
2023/10/31 05:41:13;;;;;;;2.67;1.85;;;20.70;84.00;;;;;;5048498;28;20021;-58
2023/10/31 05:43:39;;;;;;;3.70;2.28;;;20.70;83.10;;;;;;5033338;28;20056;-58
2023/10/31 05:46:05;;;;;;;2.92;2.22;;;20.70;83.10;;;;;;5033043;28;20045;-58
2023/10/31 05:48:32;;;;;;;3.35;2.30;;;20.70;83.10;;;;;;5033116;28;20512;-59
2023/10/31 05:50:57;;;;;;;3.00;2.15;;;20.70;83.10;;;;;;5033059;28;20022;-58
2023/10/31 05:53:23;;;;;;;3.20;2.05;;;20.70;83.10;;;;;;5033586;28;20095;-58
2023/10/31 05:55:49;;;;;;;3.72;2.30;;;20.70;83.10;;;;;;5033235;28;20062;-58
2023/10/31 05:58:14;;;;;;;2.90;1.98;;;20.60;83.00;;;;;;5033029;28;20021;-58
2023/10/31 06:00:40;;;;;;;3.15;2.15;;;20.70;83.10;;;;;;5032991;28;20045;-58
2023/10/31 06:03:05;;;;;;;5.45;2.58;;;20.60;83.10;;;;;;5032956;28;20025;-58
2023/10/31 06:05:31;;;;;;;3.95;2.35;;;20.60;83.00;;;;;;5033275;28;20030;-58
2023/10/31 06:07:57;;;;;;;3.17;2.20;;;20.60;83.00;;;;;;5032939;28;20017;-59
2023/10/31 06:10:22;;;;;;;4.32;2.42;;;20.60;83.10;;;;;;5032878;28;20490;-58
2023/10/31 06:12:48;;;;;;;3.45;2.45;;;20.60;83.10;;;;;;5032863;28;20028;-58
2023/10/31 06:15:14;;;;;;;3.45;2.28;;;20.60;83.00;;;;;;5032704;28;20105;-58
2023/10/31 06:17:39;;;;;;;4.72;2.20;;;20.60;83.00;;;;;;5032842;28;20061;-58
2023/10/31 06:20:08;;;;;;;4.68;2.50;;;20.60;83.00;;;;;;5032869;28;20028;-59
2023/10/31 06:22:33;;;;;;;3.25;2.08;;;20.60;83.00;;;;;;5033271;28;20389;-58
2023/10/31 06:24:59;;;;;;;3.42;2.30;;;20.60;83.00;;;;;;5032722;28;20018;-58
2023/10/31 06:27:25;;;;;;;4.03;2.22;;;20.60;83.00;;;;;;5035167;28;20029;-59
2023/10/31 06:29:50;;;;;;;4.10;2.65;;;20.60;83.10;;;;;;5037204;28;20079;-58
2023/10/31 06:32:16;;;;;;;3.45;2.28;;;20.60;83.00;;;;;;5036552;28;20500;-58
2023/10/31 06:34:41;;;;;;;3.00;2.47;;;20.50;83.00;;;;;;5036531;28;20366;-58
2023/10/31 06:37:07;;;;;;;3.33;2.42;;;20.60;83.00;;;;;;5036407;28;20486;-58
2023/10/31 06:39:33;;;;;;;4.28;2.50;;;20.60;83.00;;;;;;5036928;28;20064;-58
2023/10/31 06:41:59;;;;;;;3.25;2.00;;;20.50;83.80;;;;;;5036363;28;20067;-58
2023/10/31 06:44:26;;;;;;;3.95;2.50;;;20.50;83.00;;;;;;5036262;28;20029;-58
2023/10/31 06:46:52;;;;;;;3.38;2.25;;;20.50;83.00;;;;;;5036180;28;20014;-58
2023/10/31 06:49:19;;;;;;;3.30;2.28;;;20.50;83.00;;;;;;5036779;28;20025;-58
2023/10/31 06:51:44;;;;;;;2.88;2.17;;;20.50;83.00;;;;;;5036168;28;20052;-58
2023/10/31 06:54:10;;;;;;;3.55;2.40;;;20.50;83.00;;;;;;5036115;28;20057;-58
2023/10/31 06:56:35;;;;;;;4.43;2.30;;;20.50;83.00;;;;;;5036025;28;20053;-58
2023/10/31 06:59:01;;;;;;;2.60;2.00;;;20.50;83.00;;;;;;5035991;28;20060;-58
2023/10/31 07:01:27;;;;;;;3.50;2.25;;;20.50;82.90;;;;;;5036013;28;20029;-58
2023/10/31 07:03:52;;;;;;;3.03;2.35;;;20.50;82.90;;;;;;5035890;28;20093;-58
2023/10/31 07:06:18;;;;;;;3.45;2.42;;;20.50;82.90;;;;;;5035864;28;20075;-58
2023/10/31 07:08:43;;;;;;;3.72;2.53;;;20.50;82.90;;;;;;5036399;28;20025;-58
2023/10/31 07:11:09;;;;;;;3.45;2.38;;;20.40;82.90;;;;;;5035803;28;20087;-59
2023/10/31 07:13:34;;;;;;;2.70;1.98;;;20.50;82.90;;;;;;5035779;28;20022;-58
2023/10/31 07:16:00;;;;;;;3.15;2.38;;;20.50;82.90;;;;;;5035937;28;20091;-58
2023/10/31 07:18:25;;;;;;;3.00;2.22;;;20.50;82.90;;;;;;5035713;28;20079;-58
2023/10/31 07:20:51;;;;;;;3.55;2.13;;;20.50;82.90;;;;;;5036157;28;20041;-58
2023/10/31 07:23:16;;;;;;;3.17;2.20;;;20.50;82.90;;;;;;5036157;28;20096;-58
2023/10/31 07:25:43;;;;;;;4.05;2.28;;;20.50;82.90;;;;;;5035403;28;20060;-59
2023/10/31 07:28:08;;;;;;;3.30;2.20;;;20.50;82.90;;;;;;5035504;28;20028;-58
2023/10/31 07:30:34;;;;;;;3.55;2.47;;;20.40;82.80;;;;;;5035497;28;20025;-59
2023/10/31 07:32:59;;;;;;;4.50;3.20;;;20.50;82.70;;;;;;5036035;28;20041;-59
2023/10/31 07:35:25;;;;;;;4.60;3.13;;;20.40;82.00;;;;;;5035346;28;20055;-59
2023/10/31 07:37:51;;;;;;;5.80;4.00;;;20.30;81.70;;;;;;5035005;28;20025;-59
2023/10/31 07:40:16;;;;;;;7.20;4.60;;;20.30;81.30;;;;;;5035818;28;20034;-59
2023/10/31 07:42:42;;;;;;;6.22;4.72;;;20.20;81.00;;;;;;5035825;28;20028;-59
2023/10/31 07:45:08;;;;;;;7.07;5.30;;;20.10;80.80;;;;;;5035679;28;20025;-60
2023/10/31 07:47:33;;;;;;;7.82;5.47;;;20.10;80.50;;;;;;5035115;28;20025;-59
2023/10/31 07:49:59;;;;;;;7.78;5.78;;;20.00;80.30;;;;;;5035138;28;20025;-59
2023/10/31 07:52:24;;;;;;;8.25;5.57;;;19.90;80.20;;;;;;5035593;28;20022;-59
2023/10/31 07:54:50;;;;;;;7.95;5.13;;;19.90;80.30;;;;;;5035068;28;20072;-58
2023/10/31 07:57:15;;;;;;;7.15;5.00;;;19.80;80.30;;;;;;5034896;28;20030;-59
2023/10/31 07:59:41;;;;;;;9.43;6.43;;;19.80;80.30;;;;;;5035184;28;20033;-58
2023/10/31 08:02:06;;;;;;;7.05;5.18;;;19.80;80.10;;;;;;5034880;28;20033;-58
2023/10/31 08:04:32;;;;;;;6.60;4.25;;;19.80;80.40;;;;;;5034829;28;20042;-58
2023/10/31 08:06:58;;;;;;;8.27;5.65;;;19.80;80.60;;;;;;5034948;28;20067;-60
2023/10/31 08:09:23;;;;;;;7.45;5.55;;;19.80;80.70;;;;;;5034993;28;20014;-59
2023/10/31 08:11:49;;;;;;;6.80;5.03;;;19.80;80.70;;;;;;5034700;28;20389;-60
2023/10/31 08:14:17;;;;;;;6.00;4.38;;;19.80;80.70;;;;;;5034687;28;20026;-60
2023/10/31 08:16:44;;;;;;;6.65;4.63;;;19.90;80.90;;;;;;5049590;22;20137;-67
2023/10/31 08:19:10;;;;;;;5.93;3.90;;;20.00;81.00;;;;;;5015655;28;20022;-66
2023/10/31 08:21:38;;;;;;;5.72;4.03;;;20.00;81.00;;;;;;5016556;28;20024;-65
2023/10/31 08:24:05;;;;;;;5.05;3.97;;;20.00;81.00;;;;;;5015574;28;20030;-65
2023/10/31 08:26:31;;;;;;;6.13;3.83;;;20.10;81.00;;;;;;5031382;28;20027;-64
2023/10/31 08:28:57;;;;;;;4.53;3.60;;;20.10;80.80;;;;;;5015347;28;20022;-64
2023/10/31 08:31:23;;;;;;;4.47;3.30;;;20.10;80.80;;;;;;5015463;28;20028;-64
2023/10/31 08:33:48;;;;;;;4.43;3.70;;;20.10;80.70;;;;;;5015742;28;20106;-65
2023/10/31 08:36:14;;;;;;;5.35;3.70;;;20.10;80.70;;;;;;5015324;28;20037;-64
2023/10/31 08:38:39;;;;;;;5.30;4.22;;;20.20;80.80;;;;;;5030715;28;20486;-64
2023/10/31 08:41:05;;;;;;;6.10;3.78;;;20.20;80.80;;;;;;5015567;28;20032;-64
2023/10/31 08:43:31;;;;;;;5.80;3.63;;;20.20;80.80;;;;;;5015319;28;20026;-65
2023/10/31 08:45:57;;;;;;;4.75;3.40;;;20.20;80.90;;;;;;5015229;28;20022;-64
2023/10/31 08:48:22;;;;;;;4.88;3.38;;;20.20;81.00;;;;;;5015477;28;20455;-64
2023/10/31 08:50:48;;;;;;;4.50;3.30;;;20.20;81.00;;;;;;5013302;28;20030;-64
2023/10/31 08:53:14;;;;;;;4.85;3.38;;;20.20;81.00;;;;;;5014945;28;20021;-64
2023/10/31 08:55:40;;;;;;;5.82;3.30;;;20.20;81.10;;;;;;5014818;28;20081;-65
2023/10/31 08:58:05;;;;;;;4.28;3.45;;;20.20;81.20;;;;;;5015415;28;20030;-65
2023/10/31 09:00:31;;;;;;;5.32;3.28;;;20.20;81.20;;;;;;5015770;28;20042;-65
2023/10/31 09:02:58;;;;;;;3.80;3.05;;;20.30;81.20;;;;;;5015073;28;20057;-63
2023/10/31 09:05:24;;;;;;;6.72;3.72;;;20.30;81.40;;;;;;5014846;28;20037;-65
2023/10/31 09:07:49;;;;;;;4.75;3.50;;;20.30;81.40;;;;;;5018272;28;20048;-65
2023/10/31 09:10:15;;;;;;;4.55;3.47;;;20.30;81.70;;;;;;5016572;28;20029;-65
2023/10/31 09:12:41;;;;;;;4.80;3.70;;;20.30;81.90;;;;;;5019599;28;20021;-65
2023/10/31 09:15:07;;;;;;;5.55;3.50;;;20.30;82.00;;;;;;5018419;28;20033;-65
2023/10/31 09:17:32;;;;;;;5.20;3.17;;;20.30;82.10;;;;;;5017683;28;20037;-65
2023/10/31 09:19:59;;;;;;;5.30;3.63;;;20.40;82.30;;;;;;5016870;28;20037;-65
2023/10/31 09:22:27;;;;;;;7.70;3.55;;;20.40;82.30;;;;;;5018148;28;20029;-65
2023/10/31 09:24:52;;;;;;;5.05;3.20;;;20.40;82.30;;;;;;5017079;28;20033;-65
2023/10/31 09:27:18;;;;;;;4.40;3.28;;;20.50;82.40;;;;;;5016083;28;20022;-65
2023/10/31 09:29:44;;;;;;;5.05;3.20;;;20.50;82.40;;;;;;5016737;28;20042;-65
2023/10/31 09:32:09;;;;;;;3.35;2.97;;;20.50;82.40;;;;;;5018733;28;20044;-65
2023/10/31 09:34:35;;;;;;;3.88;3.10;;;20.50;82.40;;;;;;5017185;28;20025;-65
2023/10/31 09:37:01;;;;;;;3.60;3.00;;;20.50;82.40;;;;;;5015370;28;20498;-65
2023/10/31 09:39:28;;;;;;;5.22;3.20;;;20.50;82.40;;;;;;5016251;28;20109;-66
2023/10/31 09:41:54;;;;;;;4.20;3.30;;;20.50;82.40;;;;;;5017112;28;20050;-65
2023/10/31 09:44:20;;;;;;;3.88;3.47;;;20.60;82.50;;;;;;5016151;28;20033;-66
2023/10/31 09:46:46;;;;;;;4.82;3.47;;;20.60;82.50;;;;;;5016443;28;20022;-65
2023/10/31 09:49:12;;;;;;;3.88;3.22;;;20.60;82.50;;;;;;5017584;28;20426;-65
2023/10/31 09:51:38;;;;;;;3.42;3.13;;;20.60;82.50;;;;;;5016316;28;20049;-63
2023/10/31 09:54:06;;;;;;;6.40;3.33;;;20.60;82.50;;;;;;5032249;28;20018;-65
2023/10/31 09:56:34;;;;;;;4.88;3.30;;;20.60;82.50;;;;;;5017316;28;20110;-64
2023/10/31 09:59:00;;;;;;;4.15;3.05;;;20.70;82.50;;;;;;5016553;28;20022;-63
2023/10/31 10:01:26;;;;;;;7.18;3.80;;;20.70;82.40;;;;;;5018658;28;20069;-64
2023/10/31 10:03:54;;;;;;;7.82;4.97;;;20.70;82.20;;;;;;5020091;28;20022;-64
2023/10/31 10:06:23;;;;;;;6.05;4.10;;;20.70;82.10;;;;;;5036495;28;20485;-63
2023/10/31 10:08:49;;;;;;;8.70;4.15;;;20.70;82.10;;;;;;5020029;28;20144;-64
2023/10/31 10:11:14;;;;;;;6.85;4.63;;;20.70;82.10;;;;;;5020738;28;20026;-64
2023/10/31 10:13:40;;;;;;;6.97;4.30;;;20.70;82.30;;;;;;5019759;28;20033;-63
2023/10/31 10:16:06;;;;;;;8.57;4.18;;;20.70;82.40;;;;;;5018930;28;20100;-63
2023/10/31 10:18:35;;;;;;;11.40;4.45;;;20.70;82.50;;;;;;5018876;28;20084;-62
2023/10/31 10:21:02;;;;;;;9.35;4.50;;;20.70;82.90;;;;;;5018658;28;20036;-63
2023/10/31 10:23:29;;;;;;;6.30;4.30;;;20.70;83.10;;;;;;5019069;28;20026;-61
2023/10/31 10:25:56;;;;;;;7.22;4.50;;;20.70;83.00;;;;;;5018533;28;20022;-62
2023/10/31 10:28:24;;;;;;;7.03;4.07;;;20.70;83.10;;;;;;5017065;28;20026;-63
2023/10/31 10:30:52;;;;;;;6.55;4.13;;;20.80;83.20;;;;;;5016876;28;20025;-63
2023/10/31 10:33:18;;;;;;;6.22;4.43;;;20.80;83.20;;;;;;5017418;28;20018;-62
2023/10/31 10:35:44;;;;;;;6.93;4.32;;;20.80;83.30;;;;;;5017021;28;20101;-63
2023/10/31 10:38:17;;;;;;;7.50;4.22;;;20.80;83.40;;;;;;5016801;28;20110;-63
2023/10/31 10:40:45;;;;;;;9.38;4.57;;;20.80;83.30;;;;;;5016719;28;20033;-63
2023/10/31 10:43:21;;;;;;;6.55;3.97;;;20.80;83.40;;;;;;5016696;28;20103;-63
2023/10/31 10:45:58;;;;;;;7.07;3.80;;;20.80;83.30;;;;;;5016830;28;20037;-63
2023/10/31 10:48:25;;;;;;;7.63;4.10;;;20.80;83.40;;;;;;5016675;28;20389;-63
2023/10/31 10:50:59;;;;;;;6.03;4.25;;;20.80;83.40;;;;;;5016487;28;20018;-63
2023/10/31 10:53:29;;;;;;;5.32;4.10;;;20.80;83.40;;;;;;5016502;28;20022;-62
2023/10/31 10:56:03;;;;;;;5.82;4.07;;;20.90;83.40;;;;;;5031638;28;20505;-62
2023/10/31 10:58:49;;;;;;;6.82;4.50;;;20.90;83.40;;;;;;5016395;28;20386;-63
2023/10/31 11:01:17;;;;;;;6.25;4.15;;;20.90;83.20;;;;;;5016387;28;20026;-62
2023/10/31 11:03:45;;;;;;;6.03;4.00;;;20.90;83.40;;;;;;5016829;28;20385;-62
2023/10/31 11:06:11;;;;;;;7.43;4.22;;;20.90;83.30;;;;;;5016895;28;20437;-63
2023/10/31 11:08:37;;;;;;;7.25;3.80;;;20.90;83.30;;;;;;5016784;28;20382;-63
2023/10/31 11:11:04;;;;;;;5.00;3.80;;;20.90;83.30;;;;;;5016205;28;20022;-62
2023/10/31 11:13:30;;;;;;;5.15;3.72;;;20.90;83.20;;;;;;5015923;28;20033;-62
2023/10/31 11:16:01;;;;;;;6.57;3.88;;;20.90;83.20;;;;;;5016031;28;20038;-62
2023/10/31 11:18:27;;;;;;;5.17;3.40;;;20.90;83.10;;;;;;5016304;28;20068;-62
2023/10/31 11:20:53;;;;;;;4.80;4.00;;;20.90;83.10;;;;;;5016246;28;20376;-62
2023/10/31 11:23:18;;;;;;;8.23;4.20;;;20.90;83.10;;;;;;5016184;28;20033;-62
2023/10/31 11:25:53;;;;;;;6.03;3.90;;;20.90;83.10;;;;;;5015719;28;20427;-62
2023/10/31 11:28:19;;;;;;;5.38;3.70;;;21.00;83.10;;;;;;5016120;28;20026;-62
2023/10/31 11:30:48;;;;;;;5.07;3.72;;;21.00;83.10;;;;;;5015740;28;20048;-62
2023/10/31 11:33:15;;;;;;;5.82;3.83;;;21.00;83.10;;;;;;5015684;28;20025;-62
2023/10/31 11:35:40;;;;;;;5.45;3.97;;;21.00;83.00;;;;;;5015816;28;20032;-62
2023/10/31 11:38:11;;;;;;;5.20;3.85;;;21.00;83.00;;;;;;5015838;28;20534;-62
2023/10/31 11:40:57;;;;;;;6.63;4.20;;;21.00;83.00;;;;;;5015876;28;20030;-62
2023/10/31 11:43:23;;;;;;;6.78;3.60;;;21.00;83.00;;;;;;5015512;28;20109;-62
2023/10/31 11:45:49;;;;;;;6.70;3.83;;;21.00;83.10;;;;;;5015334;28;20109;-62
2023/10/31 11:48:15;;;;;;;6.95;3.92;;;21.00;83.10;;;;;;5015944;28;20068;-62
2023/10/31 11:50:41;;;;;;;6.18;3.60;;;21.00;83.00;;;;;;5015366;28;20072;-62
2023/10/31 11:53:12;;;;;;;6.13;3.83;;;21.00;83.00;;;;;;5015377;28;20069;-62
2023/10/31 11:55:43;;;;;;;5.50;3.45;;;21.00;82.90;;;;;;5015367;28;20537;-62
2023/10/31 11:58:15;;;;;;;4.93;3.58;;;21.00;83.00;;;;;;5015227;28;20080;-62
2023/10/31 12:00:40;;;;;;;5.75;3.58;;;21.00;83.00;;;;;;5015271;28;20030;-62
2023/10/31 12:03:06;;;;;;;5.38;3.30;;;21.00;83.00;;;;;;5015387;28;20068;-62
2023/10/31 12:05:32;;;;;;;4.30;3.70;;;21.00;82.90;;;;;;5015009;28;20030;-62
2023/10/31 12:07:57;;;;;;;6.30;3.70;;;21.10;83.00;;;;;;5015051;28;20029;-62
2023/10/31 12:10:30;;;;;;;4.30;3.67;;;21.10;82.90;;;;;;5030272;28;20079;-62
2023/10/31 12:12:57;;;;;;;6.00;3.58;;;21.10;82.70;;;;;;5015304;28;20034;-62
2023/10/31 12:15:23;;;;;;;6.13;3.90;;;21.10;82.80;;;;;;5015181;28;20120;-62
2023/10/31 12:17:49;;;;;;;4.05;3.13;;;21.10;82.70;;;;;;5014834;28;20123;-61
2023/10/31 12:20:16;;;;;;;4.63;2.83;;;21.10;82.80;;;;;;5014865;28;20479;-62
2023/10/31 12:22:42;;;;;;;5.43;3.03;;;21.10;82.70;;;;;;5015133;28;20430;-62
2023/10/31 12:25:09;;;;;;;6.30;2.90;;;21.10;82.50;;;;;;5013732;28;20089;-62
2023/10/31 12:27:50;;;;;;;5.13;3.00;;;21.10;82.10;;;;;;5015025;28;20022;-62
2023/10/31 12:30:21;;;;;;;7.88;3.60;;;21.10;81.50;;;;;;5014649;28;20431;-62
2023/10/31 12:32:55;;;;;;;6.80;3.55;;;21.00;81.70;;;;;;5015256;28;20021;-62
2023/10/31 12:35:22;;;;;;;4.68;3.30;;;21.10;81.80;;;;;;5015010;28;20022;-62
2023/10/31 12:37:49;;;;;;;4.15;3.17;;;21.00;81.90;;;;;;5014647;28;20459;-62
2023/10/31 12:40:20;;;;;;;4.75;3.13;;;21.00;82.00;;;;;;5015153;28;20046;-62
2023/10/31 12:42:47;;;;;;;4.35;3.33;;;21.00;81.90;;;;;;5015162;28;20080;-62